createdAt,value
2022-08-27T00:01:12.899Z,23.70
2022-08-27T00:02:45.545Z,23.66
2022-08-27T00:04:17.866Z,23.61
2022-08-27T00:05:50.090Z,23.56
2022-08-27T00:07:22.478Z,23.54
2022-08-27T00:08:54.890Z,23.53
2022-08-27T00:10:27.564Z,23.49
2022-08-27T00:11:59.884Z,23.46
2022-08-27T00:13:32.227Z,23.40
2022-08-27T00:15:05.450Z,23.35
2022-08-27T00:16:37.606Z,23.35
2022-08-27T00:18:09.935Z,23.31
2022-08-27T00:19:42.561Z,23.32
2022-08-27T00:21:15.126Z,23.24
2022-08-27T00:22:47.245Z,23.22
2022-08-27T00:24:19.523Z,23.17
2022-08-27T00:25:51.900Z,23.13
2022-08-27T00:27:24.055Z,23.10
2022-08-27T00:28:57.456Z,23.07
2022-08-27T00:30:29.748Z,23.04
2022-08-27T00:32:02.297Z,23.01
2022-08-27T00:33:34.862Z,23.00
2022-08-27T00:35:07.161Z,22.98
2022-08-27T00:36:39.609Z,22.97
2022-08-27T00:38:12.516Z,22.96
2022-08-27T00:39:44.658Z,22.94
2022-08-27T00:41:18.411Z,22.94
2022-08-27T00:42:50.692Z,22.92
2022-08-27T00:44:23.030Z,22.92
2022-08-27T00:45:58.802Z,22.94
2022-08-27T00:47:31.860Z,22.92
2022-08-27T00:49:09.123Z,22.91
2022-08-27T00:50:47.904Z,22.89
2022-08-27T00:52:25.994Z,22.87
2022-08-27T00:53:58.632Z,22.85
2022-08-27T00:55:33.425Z,22.84
2022-08-27T00:57:07.801Z,22.88
2022-08-27T00:58:45.397Z,22.90
2022-08-27T01:00:18.829Z,22.95
2022-08-27T01:02:10.104Z,22.97
2022-08-27T01:03:45.066Z,23.04
2022-08-27T01:05:20.602Z,23.12
2022-08-27T01:06:52.769Z,23.15
2022-08-27T01:08:26.605Z,23.15
2022-08-27T01:10:00.522Z,23.16
2022-08-27T01:11:33.348Z,23.17
2022-08-27T01:13:09.523Z,23.22
2022-08-27T01:14:43.035Z,23.23
2022-08-27T01:16:21.463Z,23.24
2022-08-27T01:17:55.553Z,23.23
2022-08-27T01:19:34.529Z,23.20
2022-08-27T01:21:20.036Z,23.16
2022-08-27T01:23:11.306Z,23.16
2022-08-27T01:24:45.638Z,23.15
2022-08-27T01:26:18.775Z,23.14
2022-08-27T01:27:51.272Z,23.14
2022-08-27T01:29:23.850Z,23.13
2022-08-27T01:30:56.037Z,23.11
2022-08-27T01:32:29.706Z,23.07
2022-08-27T01:34:04.552Z,23.04
2022-08-27T01:35:36.952Z,23.03
2022-08-27T01:37:13.027Z,23.00
2022-08-27T01:38:45.070Z,22.97
2022-08-27T01:40:19.315Z,22.93
2022-08-27T01:41:52.859Z,22.87
2022-08-27T01:43:25.423Z,22.82
2022-08-27T01:45:04.769Z,22.75
2022-08-27T01:46:38.499Z,22.68
2022-08-27T01:48:11.161Z,22.62
2022-08-27T01:49:43.732Z,22.57
2022-08-27T01:51:15.867Z,22.49
2022-08-27T01:52:49.026Z,22.42
2022-08-27T01:54:21.715Z,22.35
2022-08-27T01:55:54.646Z,22.29
2022-08-27T01:57:27.144Z,22.24
2022-08-27T01:58:59.367Z,22.20
2022-08-27T02:00:34.830Z,22.15
2022-08-27T02:02:08.331Z,22.09
2022-08-27T02:03:40.819Z,22.03
2022-08-27T02:05:13.751Z,21.98
2022-08-27T02:06:47.042Z,21.96
2022-08-27T02:08:19.619Z,21.91
2022-08-27T02:09:52.188Z,21.89
2022-08-27T02:11:24.346Z,21.85
2022-08-27T02:12:56.838Z,21.83
2022-08-27T02:14:29.147Z,21.81
2022-08-27T02:16:01.585Z,21.81
2022-08-27T02:17:34.337Z,21.82
2022-08-27T02:19:07.141Z,21.81
2022-08-27T02:20:44.178Z,21.81
2022-08-27T02:22:17.116Z,21.82
2022-08-27T02:23:49.353Z,21.81
2022-08-27T02:25:21.796Z,21.82
2022-08-27T02:26:55.269Z,21.82
2022-08-27T02:28:27.356Z,21.83
2022-08-27T02:29:59.515Z,21.82
2022-08-27T02:31:32.174Z,21.81
2022-08-27T02:33:05.491Z,21.78
2022-08-27T02:34:38.177Z,21.75
2022-08-27T02:36:10.611Z,21.72
2022-08-27T02:37:43.687Z,21.69
2022-08-27T02:39:15.823Z,21.67
2022-08-27T02:40:48.019Z,21.64
2022-08-27T02:42:20.113Z,21.60
2022-08-27T02:43:52.470Z,21.59
2022-08-27T02:45:24.734Z,21.56
2022-08-27T02:46:56.819Z,21.54
2022-08-27T02:48:29.007Z,21.52
2022-08-27T02:50:01.865Z,21.49
2022-08-27T02:51:35.885Z,21.46
2022-08-27T02:53:08.224Z,21.43
2022-08-27T02:54:40.684Z,21.42
2022-08-27T02:56:13.137Z,21.39
2022-08-27T02:57:49.511Z,21.38
2022-08-27T02:59:21.832Z,21.34
2022-08-27T03:00:54.076Z,21.34
2022-08-27T03:02:26.741Z,21.33
2022-08-27T03:03:59.849Z,21.29
2022-08-27T03:05:31.955Z,21.27
2022-08-27T03:07:04.210Z,21.26
2022-08-27T03:08:53.146Z,21.25
2022-08-27T03:10:25.758Z,21.24
2022-08-27T03:12:01.726Z,21.25
2022-08-27T03:13:40.006Z,21.25
2022-08-27T03:15:14.877Z,21.27
2022-08-27T03:16:46.986Z,21.27
2022-08-27T03:18:19.719Z,21.29
2022-08-27T03:19:52.146Z,21.29
2022-08-27T03:21:25.539Z,21.29
2022-08-27T03:22:57.733Z,21.29
2022-08-27T03:24:29.824Z,21.29
2022-08-27T03:26:04.872Z,21.28
2022-08-27T03:27:37.517Z,21.28
2022-08-27T03:29:09.683Z,21.29
2022-08-27T03:30:42.728Z,21.29
2022-08-27T03:32:14.902Z,21.28
2022-08-27T03:33:47.294Z,21.26
2022-08-27T03:35:20.297Z,21.27
2022-08-27T03:36:53.021Z,21.25
2022-08-27T03:38:25.422Z,21.24
2022-08-27T03:39:57.935Z,21.23
2022-08-27T03:41:43.868Z,21.19
2022-08-27T03:43:23.158Z,21.17
2022-08-27T03:44:55.289Z,21.15
2022-08-27T03:46:30.978Z,21.11
2022-08-27T03:48:03.472Z,21.08
2022-08-27T03:49:35.614Z,21.06
2022-08-27T03:51:09.288Z,21.01
2022-08-27T03:52:41.661Z,20.97
2022-08-27T03:54:13.774Z,20.96
2022-08-27T03:55:46.171Z,20.92
2022-08-27T03:57:18.382Z,20.90
2022-08-27T03:58:51.059Z,20.89
2022-08-27T04:00:24.785Z,20.86
2022-08-27T04:01:57.191Z,20.83
2022-08-27T04:03:29.371Z,20.83
2022-08-27T04:05:01.930Z,20.80
2022-08-27T04:06:35.424Z,20.80
2022-08-27T04:08:07.562Z,20.78
2022-08-27T04:09:39.805Z,20.75
2022-08-27T04:11:12.547Z,20.73
2022-08-27T04:12:44.786Z,20.72
2022-08-27T04:14:26.242Z,20.73
2022-08-27T04:15:58.870Z,20.72
2022-08-27T04:17:31.780Z,20.73
2022-08-27T04:19:03.923Z,20.74
2022-08-27T04:20:36.486Z,20.76
2022-08-27T04:22:08.957Z,20.79
2022-08-27T04:23:42.198Z,20.83
2022-08-27T04:25:14.353Z,20.86
2022-08-27T04:26:47.689Z,20.90
2022-08-27T04:28:19.853Z,20.95
2022-08-27T04:29:56.134Z,21.02
2022-08-27T04:31:28.551Z,21.08
2022-08-27T04:33:01.017Z,21.16
2022-08-27T04:34:33.353Z,21.23
2022-08-27T04:36:06.948Z,21.30
2022-08-27T04:37:40.373Z,21.37
2022-08-27T04:39:13.477Z,21.45
2022-08-27T04:41:04.137Z,21.54
2022-08-27T04:42:36.201Z,21.67
2022-08-27T04:44:09.162Z,21.78
2022-08-27T04:45:45.134Z,21.91
2022-08-27T04:47:17.292Z,22.06
2022-08-27T04:48:52.790Z,22.23
2022-08-27T04:50:26.361Z,22.39
2022-08-27T04:52:02.814Z,22.55
2022-08-27T04:53:35.386Z,22.69
2022-08-27T04:55:07.776Z,22.85
2022-08-27T04:56:40.007Z,22.98
2022-08-27T04:58:12.494Z,23.10
2022-08-27T04:59:45.052Z,23.23
2022-08-27T05:01:18.492Z,23.34
2022-08-27T05:02:50.740Z,23.43
2022-08-27T05:04:23.101Z,23.53
2022-08-27T05:06:00.212Z,23.62
2022-08-27T05:07:32.237Z,23.69
2022-08-27T05:09:05.194Z,23.80
2022-08-27T05:10:44.740Z,23.91
2022-08-27T05:12:17.115Z,24.00
2022-08-27T05:13:49.230Z,24.04
2022-08-27T05:15:21.916Z,24.16
2022-08-27T05:16:54.357Z,24.24
2022-08-27T05:18:26.564Z,24.26
2022-08-27T05:19:58.993Z,24.25
2022-08-27T05:21:32.908Z,24.25
2022-08-27T05:23:05.269Z,24.30
2022-08-27T05:24:37.435Z,24.31
2022-08-27T05:26:09.525Z,24.32
2022-08-27T05:27:41.721Z,24.28
2022-08-27T05:29:14.740Z,24.29
2022-08-27T05:30:52.383Z,24.33
2022-08-27T05:32:28.070Z,24.41
2022-08-27T05:34:00.788Z,24.39
2022-08-27T05:35:33.777Z,24.35
2022-08-27T05:37:06.076Z,24.42
2022-08-27T05:38:38.164Z,24.44
2022-08-27T05:40:10.624Z,24.46
2022-08-27T05:41:43.253Z,24.50
2022-08-27T05:43:16.546Z,24.58
2022-08-27T05:44:48.587Z,24.63
2022-08-27T05:46:22.527Z,24.68
2022-08-27T05:47:55.558Z,24.72
2022-08-27T05:49:27.733Z,24.74
2022-08-27T05:51:07.032Z,24.74
2022-08-27T05:52:39.571Z,24.68
2022-08-27T05:54:19.112Z,25.12
2022-08-27T05:55:51.228Z,25.23
2022-08-27T05:57:23.273Z,25.25
2022-08-27T05:59:14.286Z,25.67
2022-08-27T06:01:10.191Z,26.17
2022-08-27T06:02:46.157Z,26.35
2022-08-27T06:04:18.936Z,26.63
2022-08-27T06:05:59.679Z,26.85
2022-08-27T06:07:33.359Z,26.98
2022-08-27T06:09:05.927Z,27.02
2022-08-27T06:10:39.830Z,26.80
2022-08-27T06:12:12.331Z,26.96
2022-08-27T06:13:44.433Z,27.47
2022-08-27T06:15:16.552Z,27.94
2022-08-27T06:16:48.778Z,28.74
2022-08-27T06:18:21.326Z,29.21
2022-08-27T06:19:53.448Z,29.76
2022-08-27T06:21:26.062Z,30.37
2022-08-27T06:22:58.528Z,31.03
2022-08-27T06:24:30.962Z,31.42
2022-08-27T06:26:06.034Z,31.52
2022-08-27T06:27:38.578Z,31.52
2022-08-27T06:29:11.548Z,31.48
2022-08-27T06:30:43.990Z,31.45
2022-08-27T06:32:16.201Z,31.57
2022-08-27T06:33:48.783Z,31.68
2022-08-27T06:35:21.047Z,31.96
2022-08-27T06:36:54.411Z,32.41
2022-08-27T06:38:27.260Z,32.59
2022-08-27T06:39:59.542Z,32.95
2022-08-27T06:41:33.102Z,33.07
2022-08-27T06:43:05.615Z,32.90
2022-08-27T06:44:37.906Z,32.87
2022-08-27T06:46:11.679Z,32.58
2022-08-27T06:47:44.002Z,32.02
2022-08-27T06:49:16.414Z,31.33
2022-08-27T06:50:48.595Z,30.73
2022-08-27T06:52:20.914Z,30.49
2022-08-27T06:53:53.900Z,30.27
2022-08-27T06:55:26.374Z,30.21
2022-08-27T06:56:59.508Z,30.33
2022-08-27T06:58:31.851Z,30.43
2022-08-27T07:00:04.849Z,30.68
2022-08-27T07:01:39.246Z,31.36
2022-08-27T07:03:11.785Z,32.00
2022-08-27T07:04:43.913Z,32.66
2022-08-27T07:06:17.019Z,33.31
2022-08-27T07:07:49.447Z,34.01
2022-08-27T07:09:23.002Z,34.49
2022-08-27T07:10:57.139Z,34.95
2022-08-27T07:12:30.442Z,35.54
2022-08-27T07:14:03.256Z,35.95
2022-08-27T07:15:38.468Z,36.20
2022-08-27T07:17:11.333Z,36.43
2022-08-27T07:18:49.902Z,36.72
2022-08-27T07:20:25.416Z,36.33
2022-08-27T07:21:57.547Z,35.38
2022-08-27T07:23:30.261Z,34.43
2022-08-27T07:25:02.362Z,33.96
2022-08-27T07:26:38.914Z,33.62
2022-08-27T07:28:11.175Z,33.31
2022-08-27T07:29:43.398Z,32.86
2022-08-27T07:31:17.305Z,32.49
2022-08-27T07:32:50.249Z,32.16
2022-08-27T07:34:22.343Z,31.96
2022-08-27T07:35:54.951Z,31.72
2022-08-27T07:37:32.420Z,31.36
2022-08-27T07:39:08.022Z,30.92
2022-08-27T07:40:41.501Z,30.60
2022-08-27T07:42:32.273Z,30.36
2022-08-27T07:44:26.163Z,30.10
2022-08-27T07:46:00.847Z,29.71
2022-08-27T07:47:32.916Z,29.35
2022-08-27T07:49:05.037Z,29.12
2022-08-27T07:50:37.067Z,29.03
2022-08-27T07:52:09.937Z,29.16
2022-08-27T07:53:42.472Z,29.37
2022-08-27T07:55:14.797Z,29.66
2022-08-27T07:56:55.153Z,29.84
2022-08-27T07:58:28.430Z,30.05
2022-08-27T08:00:00.494Z,30.26
2022-08-27T08:01:32.943Z,30.44
2022-08-27T08:03:05.130Z,30.52
2022-08-27T08:04:37.688Z,30.70
2022-08-27T08:06:12.244Z,30.84
2022-08-27T08:07:44.432Z,30.77
2022-08-27T08:09:16.738Z,30.49
2022-08-27T08:10:50.091Z,30.15
2022-08-27T08:12:26.637Z,29.91
2022-08-27T08:13:59.050Z,29.79
2022-08-27T08:15:31.425Z,29.70
2022-08-27T08:17:10.105Z,29.75
2022-08-27T08:18:42.693Z,29.80
2022-08-27T08:20:24.083Z,29.74
2022-08-27T08:22:05.782Z,29.54
2022-08-27T08:23:38.474Z,29.34
2022-08-27T08:25:13.006Z,29.02
2022-08-27T08:26:45.648Z,28.72
2022-08-27T08:28:18.066Z,28.53
2022-08-27T08:29:50.383Z,28.30
2022-08-27T08:31:24.249Z,28.10
2022-08-27T08:32:56.554Z,27.82
2022-08-27T08:34:29.538Z,27.43
2022-08-27T08:36:10.029Z,27.22
2022-08-27T08:37:43.175Z,26.88
2022-08-27T08:39:18.201Z,26.72
2022-08-27T08:40:54.577Z,26.64
2022-08-27T08:42:31.709Z,26.61
2022-08-27T08:44:10.270Z,26.66
2022-08-27T08:45:43.221Z,26.70
2022-08-27T08:47:20.024Z,26.81
2022-08-27T08:48:54.539Z,27.09
2022-08-27T08:50:30.445Z,27.36
2022-08-27T08:52:30.950Z,27.61
2022-08-27T08:54:09.631Z,27.77
2022-08-27T08:55:46.734Z,27.96
2022-08-27T08:57:28.323Z,28.15
2022-08-27T08:59:23.823Z,28.25
2022-08-27T09:01:01.013Z,28.42
2022-08-27T09:02:33.182Z,28.51
2022-08-27T09:04:07.271Z,28.55
2022-08-27T09:05:42.695Z,28.60
2022-08-27T09:07:18.280Z,28.58
2022-08-27T09:08:50.397Z,28.54
2022-08-27T09:10:33.673Z,28.51
2022-08-27T09:12:05.858Z,28.46
2022-08-27T09:13:41.109Z,28.49
2022-08-27T09:15:13.201Z,28.41
2022-08-27T09:16:45.362Z,28.39
2022-08-27T09:18:18.496Z,28.39
2022-08-27T09:19:53.223Z,28.38
2022-08-27T09:21:43.551Z,28.31
2022-08-27T09:23:21.987Z,28.24
2022-08-27T09:24:57.286Z,28.19
2022-08-27T09:26:31.821Z,28.20
2022-08-27T09:28:31.981Z,28.24
2022-08-27T09:30:08.422Z,28.19
2022-08-27T09:31:41.003Z,28.15
2022-08-27T09:33:13.147Z,28.16
2022-08-27T09:34:45.669Z,28.19
2022-08-27T09:36:22.973Z,28.27
2022-08-27T09:37:56.705Z,28.40
2022-08-27T09:39:32.490Z,28.50
2022-08-27T09:41:09.370Z,28.57
2022-08-27T09:42:44.474Z,28.62
2022-08-27T09:44:22.841Z,28.67
2022-08-27T09:45:57.006Z,28.71
2022-08-27T09:47:29.189Z,28.63
2022-08-27T09:49:11.867Z,28.66
2022-08-27T09:50:49.447Z,28.74
2022-08-27T09:52:31.061Z,28.77
2022-08-27T09:54:04.577Z,28.72
2022-08-27T09:55:40.762Z,28.66
2022-08-27T09:57:14.377Z,28.60
2022-08-27T09:58:49.653Z,28.59
2022-08-27T10:00:29.337Z,28.65
2022-08-27T10:02:04.587Z,28.74
2022-08-27T10:03:42.385Z,28.75
2022-08-27T10:05:17.039Z,28.75
2022-08-27T10:06:50.726Z,28.81
2022-08-27T10:08:42.241Z,28.78
2022-08-27T10:10:22.830Z,28.83
2022-08-27T10:12:07.711Z,28.87
2022-08-27T10:13:48.547Z,28.89
2022-08-27T10:15:21.278Z,28.87
2022-08-27T10:17:12.225Z,28.76
2022-08-27T10:19:03.199Z,28.76
2022-08-27T10:20:35.347Z,28.74
2022-08-27T10:22:26.399Z,28.74
2022-08-27T10:24:17.293Z,28.72
2022-08-27T10:25:49.446Z,28.72
2022-08-27T10:27:30.565Z,28.74
2022-08-27T10:29:21.163Z,28.76
2022-08-27T10:31:11.823Z,28.75
2022-08-27T10:32:58.885Z,28.74
2022-08-27T10:34:37.422Z,28.78
2022-08-27T10:36:26.856Z,28.70
2022-08-27T10:38:18.188Z,28.67
2022-08-27T10:39:56.316Z,28.73
2022-08-27T10:41:48.669Z,28.78
2022-08-27T10:43:23.876Z,28.80
2022-08-27T10:45:14.970Z,28.74
2022-08-27T10:47:10.524Z,28.71
2022-08-27T10:49:02.956Z,28.74
2022-08-27T10:50:54.572Z,28.79
2022-08-27T10:52:35.620Z,28.82
2022-08-27T10:54:12.234Z,28.80
2022-08-27T10:55:51.753Z,28.79
2022-08-27T10:57:58.759Z,28.79
2022-08-27T10:59:36.473Z,28.81
2022-08-27T11:01:32.769Z,28.76
2022-08-27T11:03:07.220Z,28.72
2022-08-27T11:04:48.516Z,28.67
2022-08-27T11:06:21.030Z,28.64
2022-08-27T11:08:00.417Z,28.65
2022-08-27T11:09:44.854Z,28.67
2022-08-27T11:13:34.305Z,28.55
2022-08-27T11:15:27.135Z,28.51
2022-08-27T11:17:25.529Z,28.54
2022-08-27T11:19:10.300Z,28.61
2022-08-27T11:20:54.423Z,28.64
2022-08-27T11:22:47.455Z,28.60
2022-08-27T11:24:42.724Z,28.60
2022-08-27T11:26:15.617Z,28.64
2022-08-27T11:27:49.646Z,28.63
2022-08-27T11:29:25.757Z,28.63
2022-08-27T11:31:03.467Z,28.67
2022-08-27T11:32:44.565Z,28.71
2022-08-27T11:34:30.130Z,28.76
2022-08-27T11:36:12.881Z,28.84
2022-08-27T11:37:58.817Z,28.93
2022-08-27T11:39:51.812Z,28.99
2022-08-27T11:41:28.343Z,29.02
2022-08-27T11:43:07.688Z,29.06
2022-08-27T11:44:40.932Z,29.07
2022-08-27T11:46:22.036Z,29.12
2022-08-27T11:47:59.637Z,29.16
2022-08-27T11:49:52.158Z,29.21
2022-08-27T11:51:28.634Z,29.24
2022-08-27T11:53:02.722Z,29.29
2022-08-27T11:54:48.737Z,29.34
2022-08-27T11:56:36.082Z,29.36
2022-08-27T11:58:11.078Z,29.41
2022-08-27T11:59:43.665Z,29.42
2022-08-27T12:01:25.929Z,29.46
2022-08-27T12:03:04.842Z,29.54
2022-08-27T12:04:39.189Z,29.56
2022-08-27T12:06:18.419Z,29.58
2022-08-27T12:07:52.162Z,29.56
2022-08-27T12:09:24.575Z,29.55
2022-08-27T12:11:20.769Z,29.54
2022-08-27T12:13:09.606Z,29.57
2022-08-27T12:15:00.186Z,29.57
2022-08-27T12:16:32.591Z,29.59
2022-08-27T12:18:11.510Z,29.56
2022-08-27T12:20:02.521Z,29.50
2022-08-27T12:21:54.014Z,29.50
2022-08-27T12:23:47.064Z,29.56
2022-08-27T12:25:22.427Z,29.59
2022-08-27T12:26:57.160Z,29.57
2022-08-27T12:28:29.301Z,29.61
2022-08-27T12:30:20.117Z,29.66
2022-08-27T12:31:54.626Z,29.71
2022-08-27T12:33:30.327Z,29.71
2022-08-27T12:35:08.751Z,29.71
2022-08-27T12:36:40.886Z,29.71
2022-08-27T12:38:20.501Z,29.72
2022-08-27T12:39:54.500Z,29.77
2022-08-27T12:41:28.094Z,29.80
2022-08-27T12:43:20.303Z,29.86
2022-08-27T12:44:56.784Z,29.95
2022-08-27T12:46:29.797Z,30.05
2022-08-27T12:48:03.036Z,30.11
2022-08-27T12:49:39.718Z,30.14
2022-08-27T12:51:32.461Z,30.10
2022-08-27T12:53:07.492Z,30.09
2022-08-27T12:55:02.733Z,30.04
2022-08-27T12:56:59.335Z,29.85
2022-08-27T12:58:50.713Z,29.78
2022-08-27T13:00:26.895Z,29.75
2022-08-27T13:02:09.892Z,29.77
2022-08-27T13:03:48.367Z,29.79
2022-08-27T13:05:21.745Z,29.82
2022-08-27T13:06:53.839Z,29.87
2022-08-27T13:08:26.513Z,29.92
2022-08-27T13:10:09.194Z,29.94
2022-08-27T13:11:45.668Z,30.00
2022-08-27T13:13:20.083Z,30.01
2022-08-27T13:14:56.864Z,30.02
2022-08-27T13:16:30.314Z,30.00
2022-08-27T13:18:07.425Z,29.98
2022-08-27T13:19:51.014Z,30.00
2022-08-27T13:21:25.149Z,30.04
2022-08-27T13:22:57.232Z,30.06
2022-08-27T13:24:32.278Z,30.10
2022-08-27T13:26:07.301Z,30.16
2022-08-27T13:27:40.169Z,30.18
2022-08-27T13:29:12.295Z,30.19
2022-08-27T13:30:46.411Z,30.23
2022-08-27T13:32:18.691Z,30.29
2022-08-27T13:33:54.025Z,30.34
2022-08-27T13:35:26.180Z,30.37
2022-08-27T13:37:04.271Z,30.35
2022-08-27T13:38:39.230Z,30.33
2022-08-27T13:40:25.154Z,30.31
2022-08-27T13:42:00.813Z,30.29
2022-08-27T13:43:50.735Z,30.28
2022-08-27T13:45:23.550Z,30.28
2022-08-27T13:47:03.509Z,30.30
2022-08-27T13:48:36.206Z,30.32
2022-08-27T13:50:11.642Z,30.31
2022-08-27T13:51:45.575Z,30.29
2022-08-27T13:53:41.323Z,30.26
2022-08-27T13:55:16.886Z,30.19
2022-08-27T13:56:49.694Z,30.19
2022-08-27T13:58:26.814Z,30.13
2022-08-27T14:00:10.709Z,30.12
2022-08-27T14:02:01.485Z,30.10
2022-08-27T14:03:35.421Z,30.09
2022-08-27T14:05:15.498Z,30.11
2022-08-27T14:06:49.157Z,30.09
2022-08-27T14:08:23.134Z,30.05
2022-08-27T14:10:07.547Z,30.00
2022-08-27T14:11:39.655Z,29.98
2022-08-27T14:13:19.998Z,29.98
2022-08-27T14:14:54.889Z,29.94
2022-08-27T14:16:27.341Z,29.91
2022-08-27T14:17:59.979Z,29.89
2022-08-27T14:19:36.688Z,29.85
2022-08-27T14:21:09.421Z,29.86
2022-08-27T14:22:42.241Z,29.81
2022-08-27T14:24:14.371Z,29.83
2022-08-27T14:25:47.089Z,29.83
2022-08-27T14:27:20.181Z,29.81
2022-08-27T14:28:53.044Z,29.82
2022-08-27T14:30:29.935Z,29.85
2022-08-27T14:32:02.398Z,29.88
2022-08-27T14:33:36.904Z,29.90
2022-08-27T14:35:10.759Z,29.90
2022-08-27T14:36:43.274Z,29.94
2022-08-27T14:38:15.498Z,29.92
2022-08-27T14:39:47.536Z,29.94
2022-08-27T14:41:21.556Z,29.93
2022-08-27T14:42:53.995Z,29.90
2022-08-27T14:44:26.994Z,29.87
2022-08-27T14:45:59.241Z,29.82
2022-08-27T14:47:33.778Z,29.80
2022-08-27T14:49:11.242Z,29.74
2022-08-27T14:50:43.697Z,29.66
2022-08-27T14:52:15.836Z,29.63
2022-08-27T14:53:48.447Z,29.52
2022-08-27T14:55:20.625Z,29.41
2022-08-27T14:56:54.329Z,29.33
2022-08-27T14:58:26.465Z,29.27
2022-08-27T14:59:58.987Z,29.21
2022-08-27T15:01:31.366Z,29.17
2022-08-27T15:03:03.539Z,29.14
2022-08-27T15:04:35.655Z,29.08
2022-08-27T15:06:09.204Z,29.05
2022-08-27T15:07:41.708Z,29.04
2022-08-27T15:09:19.590Z,29.04
2022-08-27T15:10:51.652Z,29.00
2022-08-27T15:12:26.518Z,28.98
2022-08-27T15:14:00.238Z,28.94
2022-08-27T15:15:32.430Z,28.91
2022-08-27T15:17:20.026Z,28.89
2022-08-27T15:19:01.437Z,28.84
2022-08-27T15:20:33.677Z,28.84
2022-08-27T15:22:16.741Z,28.78
2022-08-27T15:23:50.033Z,28.71
2022-08-27T15:25:22.638Z,28.68
2022-08-27T15:26:57.980Z,28.64
2022-08-27T15:28:30.086Z,28.59
2022-08-27T15:30:02.136Z,28.53
2022-08-27T15:31:36.236Z,28.50
2022-08-27T15:33:08.385Z,28.48
2022-08-27T15:34:42.399Z,28.44
2022-08-27T15:36:14.758Z,28.42
2022-08-27T15:37:47.338Z,28.40
2022-08-27T15:39:19.415Z,28.39
2022-08-27T15:40:51.592Z,28.35
2022-08-27T15:42:24.282Z,28.33
2022-08-27T15:43:57.170Z,28.30
2022-08-27T15:45:29.911Z,28.29
2022-08-27T15:47:02.126Z,28.28
2022-08-27T15:48:34.234Z,28.25
2022-08-27T15:50:07.058Z,28.25
2022-08-27T15:51:39.241Z,28.24
2022-08-27T15:53:11.382Z,28.24
2022-08-27T15:54:48.968Z,28.27
2022-08-27T15:56:21.712Z,28.30
2022-08-27T15:57:55.587Z,28.33
2022-08-27T15:59:28.054Z,28.37
2022-08-27T16:01:03.942Z,28.41
2022-08-27T16:02:36.504Z,28.46
2022-08-27T16:04:09.488Z,28.51
2022-08-27T16:05:42.791Z,28.57
2022-08-27T16:07:15.339Z,28.64
2022-08-27T16:08:50.778Z,28.69
2022-08-27T16:10:22.877Z,28.73
2022-08-27T16:11:55.258Z,28.78
2022-08-27T16:13:27.324Z,28.81
2022-08-27T16:15:00.917Z,28.83
2022-08-27T16:16:33.681Z,28.85
2022-08-27T16:18:06.088Z,28.87
2022-08-27T16:19:39.061Z,28.89
2022-08-27T16:21:11.548Z,28.91
2022-08-27T16:22:44.180Z,28.92
2022-08-27T16:24:16.459Z,28.95
2022-08-27T16:25:48.502Z,28.96
2022-08-27T16:27:21.137Z,28.96
2022-08-27T16:28:53.181Z,28.97
2022-08-27T16:30:26.882Z,28.95
2022-08-27T16:32:01.265Z,28.94
2022-08-27T16:33:34.461Z,28.91
2022-08-27T16:35:11.574Z,28.89
2022-08-27T16:36:43.933Z,28.88
2022-08-27T16:38:16.642Z,28.85
2022-08-27T16:39:49.279Z,28.79
2022-08-27T16:41:22.527Z,28.74
2022-08-27T16:42:54.739Z,28.69
2022-08-27T16:44:26.916Z,28.61
2022-08-27T16:46:00.384Z,28.55
2022-08-27T16:47:32.532Z,28.47
2022-08-27T16:49:23.287Z,28.40
2022-08-27T16:50:55.571Z,28.31
2022-08-27T16:52:28.867Z,28.25
2022-08-27T16:54:01.841Z,28.17
2022-08-27T16:55:34.421Z,28.08
2022-08-27T16:57:06.513Z,28.01
2022-08-27T16:58:39.056Z,27.92
2022-08-27T17:00:11.292Z,27.84
2022-08-27T17:01:43.717Z,27.77
2022-08-27T17:03:16.611Z,27.67
2022-08-27T17:04:58.402Z,27.58
2022-08-27T17:06:40.080Z,27.48
2022-08-27T17:08:13.573Z,27.40
2022-08-27T17:09:46.113Z,27.31
2022-08-27T17:11:23.505Z,27.23
2022-08-27T17:12:56.317Z,27.14
2022-08-27T17:14:30.334Z,27.07
2022-08-27T17:16:03.581Z,26.97
2022-08-27T17:17:37.213Z,26.88
2022-08-27T17:19:11.015Z,26.81
2022-08-27T17:20:49.406Z,26.73
2022-08-27T17:22:21.498Z,26.65
2022-08-27T17:23:54.676Z,26.59
2022-08-27T17:25:29.893Z,26.51
2022-08-27T17:27:02.957Z,26.44
2022-08-27T17:28:35.643Z,26.40
2022-08-27T17:30:08.754Z,26.33
2022-08-27T17:31:41.876Z,26.27
2022-08-27T17:33:19.296Z,26.22
2022-08-27T17:34:51.375Z,26.17
2022-08-27T17:36:24.296Z,26.13
2022-08-27T17:37:59.043Z,26.06
2022-08-27T17:39:31.178Z,26.03
2022-08-27T17:41:06.003Z,25.99
2022-08-27T17:42:38.641Z,25.94
2022-08-27T17:44:37.071Z,25.92
2022-08-27T17:46:09.554Z,25.88
2022-08-27T17:47:42.043Z,25.84
2022-08-27T17:49:15.131Z,25.81
2022-08-27T17:50:47.399Z,25.80
2022-08-27T17:52:20.231Z,25.78
2022-08-27T17:53:57.178Z,25.74
2022-08-27T17:55:32.905Z,25.72
2022-08-27T17:57:10.492Z,25.69
2022-08-27T17:58:42.610Z,25.67
2022-08-27T18:00:15.242Z,25.65
2022-08-27T18:01:48.001Z,25.64
2022-08-27T18:03:20.302Z,25.62
2022-08-27T18:04:53.124Z,25.60
2022-08-27T18:06:26.726Z,25.57
2022-08-27T18:07:58.873Z,25.55
2022-08-27T18:09:30.951Z,25.52
2022-08-27T18:11:03.802Z,25.48
2022-08-27T18:12:36.899Z,25.45
2022-08-27T18:14:09.363Z,25.43
2022-08-27T18:15:42.363Z,25.38
2022-08-27T18:17:14.736Z,25.35
2022-08-27T18:18:47.183Z,25.32
2022-08-27T18:20:19.465Z,25.28
2022-08-27T18:21:52.735Z,25.25
2022-08-27T18:23:25.159Z,25.22
2022-08-27T18:24:57.521Z,25.20
2022-08-27T18:26:30.554Z,25.18
2022-08-27T18:28:05.527Z,25.13
2022-08-27T18:29:37.807Z,25.11
2022-08-27T18:31:11.609Z,25.11
2022-08-27T18:32:43.885Z,25.08
2022-08-27T18:34:20.544Z,25.06
2022-08-27T18:35:53.142Z,25.05
2022-08-27T18:37:25.560Z,25.05
2022-08-27T18:38:58.087Z,25.04
2022-08-27T18:40:31.763Z,25.01
2022-08-27T18:42:04.121Z,25.00
2022-08-27T18:43:36.505Z,24.96
2022-08-27T18:45:11.015Z,24.92
2022-08-27T18:46:43.073Z,24.88
2022-08-27T18:48:21.702Z,24.84
2022-08-27T18:49:54.071Z,24.82
2022-08-27T18:51:26.353Z,24.79
2022-08-27T18:53:03.562Z,24.76
2022-08-27T18:54:35.750Z,24.71
2022-08-27T18:56:09.174Z,24.67
2022-08-27T18:57:43.134Z,24.62
2022-08-27T18:59:15.577Z,24.58
2022-08-27T19:00:49.926Z,24.53
2022-08-27T19:02:22.616Z,24.48
2022-08-27T19:03:57.026Z,24.42
2022-08-27T19:05:29.249Z,24.36
2022-08-27T19:07:02.636Z,24.32
2022-08-27T19:08:35.463Z,24.27
2022-08-27T19:10:08.014Z,24.24
2022-08-27T19:11:40.103Z,24.18
2022-08-27T19:13:14.668Z,24.13
2022-08-27T19:14:48.438Z,24.07
2022-08-27T19:16:27.411Z,24.02
2022-08-27T19:18:02.976Z,23.98
2022-08-27T19:19:35.127Z,23.93
2022-08-27T19:21:07.553Z,23.89
2022-08-27T19:22:40.390Z,23.84
2022-08-27T19:24:12.451Z,23.81
2022-08-27T19:25:47.581Z,23.77
2022-08-27T19:27:24.971Z,23.74
2022-08-27T19:28:57.363Z,23.69
2022-08-27T19:30:29.506Z,23.66
2022-08-27T19:32:03.991Z,23.63
2022-08-27T19:33:36.835Z,23.59
2022-08-27T19:35:09.194Z,23.56
2022-08-27T19:36:42.372Z,23.53
2022-08-27T19:38:14.569Z,23.50
2022-08-27T19:39:47.143Z,23.48
2022-08-27T19:41:19.716Z,23.45
2022-08-27T19:42:51.842Z,23.44
2022-08-27T19:44:24.227Z,23.40
2022-08-27T19:45:57.696Z,23.38
2022-08-27T19:47:30.482Z,23.37
2022-08-27T19:49:02.686Z,23.34
2022-08-27T19:50:34.837Z,23.32
2022-08-27T19:52:08.565Z,23.28
2022-08-27T19:53:41.146Z,23.25
2022-08-27T19:55:14.437Z,23.19
2022-08-27T19:56:47.075Z,23.15
2022-08-27T19:58:19.558Z,23.11
2022-08-27T19:59:54.215Z,23.05
2022-08-27T20:01:27.120Z,23.01
2022-08-27T20:02:59.590Z,22.98
2022-08-27T20:04:34.878Z,22.94
2022-08-27T20:06:09.515Z,22.91
2022-08-27T20:07:41.580Z,22.86
2022-08-27T20:09:16.165Z,22.81
2022-08-27T20:10:49.634Z,22.76
2022-08-27T20:12:21.895Z,22.72
2022-08-27T20:13:54.021Z,22.69
2022-08-27T20:15:28.037Z,22.65
2022-08-27T20:17:00.450Z,22.62
2022-08-27T20:18:32.708Z,22.60
2022-08-27T20:20:05.519Z,22.57
2022-08-27T20:21:38.147Z,22.55
2022-08-27T20:23:10.530Z,22.54
2022-08-27T20:24:42.745Z,22.53
2022-08-27T20:26:14.823Z,22.52
2022-08-27T20:27:47.723Z,22.53
2022-08-27T20:29:32.214Z,22.51
2022-08-27T20:31:05.197Z,22.51